createdAt,value
2022-09-28T00:03:44.317Z,84.41
2022-09-28T00:06:38.190Z,84.50
2022-09-28T00:09:20.473Z,84.56
2022-09-28T00:12:15.643Z,84.94
2022-09-28T00:14:46.661Z,84.65
2022-09-28T00:17:24.166Z,84.66
2022-09-28T00:19:54.321Z,84.53
2022-09-28T00:22:30.526Z,84.57
2022-09-28T00:25:02.651Z,84.69
2022-09-28T00:27:36.993Z,84.50
2022-09-28T00:30:08.569Z,84.66
2022-09-28T00:32:42.495Z,84.59
2022-09-28T00:35:21.660Z,84.78
2022-09-28T00:37:51.404Z,84.72
2022-09-28T00:40:29.146Z,84.79
2022-09-28T00:43:16.710Z,84.70
2022-09-28T00:46:02.740Z,84.92
2022-09-28T00:48:39.890Z,85.10
2022-09-28T00:51:22.582Z,85.04
2022-09-28T00:53:58.594Z,85.11
2022-09-28T00:56:56.403Z,85.30
2022-09-28T00:59:25.106Z,85.03
2022-09-28T01:01:56.932Z,85.43
2022-09-28T01:04:29.282Z,85.35
2022-09-28T01:07:16.713Z,85.59
2022-09-28T01:10:02.602Z,85.52
2022-09-28T01:12:42.114Z,85.60
2022-09-28T01:15:32.829Z,85.41
2022-09-28T01:18:34.626Z,85.46
2022-09-28T01:21:22.538Z,85.40
2022-09-28T01:24:20.735Z,85.30
2022-09-28T01:27:29.484Z,85.43
2022-09-28T01:30:21.078Z,85.45
2022-09-28T01:33:22.779Z,85.24
2022-09-28T01:35:57.067Z,85.27
2022-09-28T01:38:51.596Z,85.18
2022-09-28T01:41:24.746Z,85.11
2022-09-28T01:44:23.826Z,85.44
2022-09-28T01:47:03.749Z,84.75
2022-09-28T01:49:42.004Z,84.79
2022-09-28T01:52:47.190Z,84.98
2022-09-28T01:55:31.836Z,85.02
2022-09-28T01:58:36.978Z,85.21
2022-09-28T02:01:27.195Z,85.32
2022-09-28T02:04:14.290Z,85.42
2022-09-28T02:07:21.838Z,85.46
2022-09-28T02:10:36.010Z,85.54
2022-09-28T02:13:43.179Z,85.65
2022-09-28T02:16:46.136Z,85.43
2022-09-28T02:19:31.325Z,85.63
2022-09-28T02:22:44.426Z,85.38
2022-09-28T02:25:46.748Z,85.47
2022-09-28T02:28:15.415Z,85.69
2022-09-28T02:30:49.308Z,85.69
2022-09-28T02:33:45.948Z,85.66
2022-09-28T02:36:40.286Z,85.66
2022-09-28T02:39:22.641Z,85.89
2022-09-28T02:42:31.957Z,85.91
2022-09-28T02:45:39.005Z,86.00
2022-09-28T02:48:47.262Z,86.01
2022-09-28T02:51:35.156Z,85.83
2022-09-28T02:54:38.628Z,85.81
2022-09-28T02:57:54.601Z,85.99
2022-09-28T03:00:24.507Z,85.61
2022-09-28T03:03:21.483Z,85.88
2022-09-28T03:06:18.680Z,85.96
2022-09-28T03:09:02.544Z,85.50
2022-09-28T03:11:53.873Z,85.82
2022-09-28T03:14:22.424Z,85.71
2022-09-28T03:17:18.727Z,85.65
2022-09-28T03:20:03.255Z,85.80
2022-09-28T03:22:35.158Z,85.66
2022-09-28T03:25:07.832Z,85.93
2022-09-28T03:27:54.489Z,86.05
2022-09-28T03:30:23.229Z,86.22
2022-09-28T03:33:04.247Z,86.08
2022-09-28T03:35:51.572Z,85.75
2022-09-28T03:38:31.191Z,85.75
2022-09-28T03:41:01.874Z,85.53
2022-09-28T03:43:54.594Z,85.48
2022-09-28T03:46:28.199Z,85.48
2022-09-28T03:49:20.186Z,85.74
2022-09-28T03:51:56.851Z,85.57
2022-09-28T03:54:37.940Z,85.37
2022-09-28T03:57:09.654Z,85.24
2022-09-28T04:00:05.118Z,85.27
2022-09-28T04:02:48.691Z,85.14
2022-09-28T04:05:17.385Z,85.20
2022-09-28T04:07:53.952Z,85.40
2022-09-28T04:10:26.018Z,85.01
2022-09-28T04:13:05.503Z,84.95
2022-09-28T04:15:36.916Z,84.85
2022-09-28T04:18:14.655Z,84.71
2022-09-28T04:21:20.732Z,85.02
2022-09-28T04:24:01.768Z,84.73
2022-09-28T04:26:34.369Z,84.78
2022-09-28T04:29:18.286Z,85.05
2022-09-28T04:32:06.039Z,85.16
2022-09-28T04:34:44.312Z,85.06
2022-09-28T04:37:31.389Z,84.75
2022-09-28T04:40:09.291Z,85.13
2022-09-28T04:42:40.046Z,85.05
2022-09-28T04:45:22.850Z,84.90
2022-09-28T04:47:55.967Z,84.61
2022-09-28T04:51:05.532Z,84.79
2022-09-28T04:53:40.169Z,84.95
2022-09-28T04:56:14.823Z,84.74
2022-09-28T04:58:43.825Z,84.88
2022-09-28T05:01:25.230Z,84.63
2022-09-28T05:04:02.083Z,84.57
2022-09-28T05:07:03.351Z,84.49
2022-09-28T05:09:41.109Z,84.39
2022-09-28T05:12:33.988Z,84.56
2022-09-28T05:15:08.450Z,84.56
2022-09-28T05:17:39.434Z,84.29
2022-09-28T05:20:15.271Z,84.15
2022-09-28T05:22:45.479Z,84.23
2022-09-28T05:25:20.609Z,84.18
2022-09-28T05:28:03.889Z,83.73
2022-09-28T05:30:52.478Z,83.63
2022-09-28T05:33:47.295Z,83.35
2022-09-28T05:36:27.070Z,83.19
2022-09-28T05:39:04.251Z,83.06
2022-09-28T05:41:41.758Z,83.06
2022-09-28T05:44:10.496Z,83.21
2022-09-28T05:46:39.322Z,82.86
2022-09-28T05:49:13.921Z,82.76
2022-09-28T05:51:42.069Z,82.35
2022-09-28T05:54:20.157Z,82.28
2022-09-28T05:56:51.275Z,82.12
2022-09-28T05:59:19.574Z,82.04
2022-09-28T06:01:55.697Z,81.81
2022-09-28T06:04:24.264Z,81.68
2022-09-28T06:06:57.529Z,81.51
2022-09-28T06:09:26.365Z,81.23
2022-09-28T06:12:00.185Z,81.37
2022-09-28T06:14:39.206Z,80.90
2022-09-28T06:17:10.634Z,80.88
2022-09-28T06:19:41.303Z,80.73
2022-09-28T06:22:26.316Z,80.71
2022-09-28T06:25:22.398Z,80.90
2022-09-28T06:28:09.295Z,80.39
2022-09-28T06:30:38.845Z,80.18
2022-09-28T06:33:15.161Z,79.91
2022-09-28T06:35:45.648Z,79.64
2022-09-28T06:38:14.209Z,79.70
2022-09-28T06:40:42.221Z,79.56
2022-09-28T06:43:15.263Z,79.14
2022-09-28T06:46:02.918Z,78.87
2022-09-28T06:49:06.370Z,78.58
2022-09-28T06:51:57.027Z,78.85
2022-09-28T06:54:57.359Z,78.50
2022-09-28T06:57:35.805Z,77.50
2022-09-28T07:00:04.639Z,77.09
2022-09-28T07:02:32.893Z,76.59
2022-09-28T07:05:30.028Z,75.99
2022-09-28T07:08:22.176Z,75.83
2022-09-28T07:11:09.007Z,76.39
2022-09-28T07:13:50.768Z,76.36
2022-09-28T07:16:28.599Z,75.96
2022-09-28T07:19:03.094Z,76.22
2022-09-28T07:21:34.262Z,76.08
2022-09-28T07:24:14.363Z,75.97
2022-09-28T07:27:12.714Z,75.92
2022-09-28T07:29:58.921Z,74.65
2022-09-28T07:32:58.138Z,75.22
2022-09-28T07:35:42.021Z,74.14
2022-09-28T07:38:19.347Z,74.29
2022-09-28T07:41:07.212Z,73.84
2022-09-28T07:43:37.077Z,74.32
2022-09-28T07:46:13.969Z,73.50
2022-09-28T07:48:58.668Z,73.10
2022-09-28T07:51:51.993Z,73.17
2022-09-28T07:54:35.863Z,73.40
2022-09-28T07:57:27.993Z,72.71
2022-09-28T08:00:34.522Z,73.05
2022-09-28T08:03:10.763Z,72.79
2022-09-28T08:05:41.298Z,73.20
2022-09-28T08:08:14.599Z,72.61
2022-09-28T08:10:47.715Z,70.74
2022-09-28T08:13:37.864Z,70.87
2022-09-28T08:19:20.847Z,70.46
2022-09-28T08:21:49.864Z,70.66
2022-09-28T08:24:19.583Z,70.58
2022-09-28T08:26:49.073Z,70.62
2022-09-28T08:29:19.833Z,69.71
2022-09-28T08:31:53.228Z,69.71
2022-09-28T08:34:48.071Z,69.85
2022-09-28T08:37:28.917Z,69.83
2022-09-28T08:40:25.234Z,69.58
2022-09-28T08:43:23.560Z,69.41
2022-09-28T08:46:17.380Z,68.60
2022-09-28T08:49:30.374Z,68.27
2022-09-28T08:52:35.868Z,67.84
2022-09-28T08:55:34.734Z,67.99
2022-09-28T08:58:17.781Z,67.94
2022-09-28T09:00:52.009Z,67.74
2022-09-28T09:03:30.499Z,67.43
2022-09-28T09:06:34.725Z,66.63
2022-09-28T09:09:36.109Z,65.03
2022-09-28T09:12:21.877Z,65.05
2022-09-28T09:15:19.278Z,64.11
2022-09-28T09:18:00.262Z,63.47
2022-09-28T09:21:15.756Z,63.42
2022-09-28T09:24:11.609Z,62.87
2022-09-28T09:26:41.745Z,62.40
2022-09-28T09:29:32.244Z,61.29
2022-09-28T09:32:25.991Z,61.06
2022-09-28T09:35:33.005Z,60.96
2022-09-28T09:38:31.355Z,60.90
2022-09-28T09:42:10.428Z,59.97
2022-09-28T09:45:06.252Z,60.00
2022-09-28T09:48:03.986Z,59.61
2022-09-28T09:50:45.119Z,59.23
2022-09-28T09:53:28.971Z,58.91
2022-09-28T09:56:17.290Z,59.14
2022-09-28T09:59:14.402Z,58.88
2022-09-28T10:02:26.632Z,58.79
2022-09-28T10:05:20.044Z,57.27
2022-09-28T10:08:03.766Z,57.29
2022-09-28T10:10:39.106Z,57.55
2022-09-28T10:13:13.770Z,56.58
2022-09-28T10:15:45.568Z,56.41
2022-09-28T10:18:21.494Z,55.78
2022-09-28T10:21:17.062Z,53.77
2022-09-28T10:23:57.548Z,53.44
2022-09-28T10:26:56.175Z,52.28
2022-09-28T10:29:27.508Z,52.77
2022-09-28T10:31:55.784Z,51.81
2022-09-28T10:34:36.219Z,51.35
2022-09-28T10:37:11.505Z,51.59
2022-09-28T10:39:56.147Z,51.58
2022-09-28T10:42:33.955Z,51.66
2022-09-28T10:45:22.000Z,52.06
2022-09-28T10:47:50.549Z,52.59
2022-09-28T10:50:28.067Z,53.34
2022-09-28T10:53:20.375Z,54.81
2022-09-28T10:56:18.836Z,55.29
2022-09-28T10:58:48.926Z,56.72
2022-09-28T11:01:31.375Z,58.10
2022-09-28T11:04:10.517Z,59.59
2022-09-28T11:06:42.173Z,61.20
2022-09-28T11:09:41.581Z,61.94
2022-09-28T11:12:17.861Z,62.71
2022-09-28T11:14:55.715Z,64.09
2022-09-28T11:17:44.113Z,64.81
2022-09-28T11:20:27.799Z,65.88
2022-09-28T11:23:18.447Z,66.03
2022-09-28T11:26:07.890Z,66.59
2022-09-28T11:28:39.814Z,67.54
2022-09-28T11:31:12.701Z,67.44
2022-09-28T11:34:31.438Z,67.40
2022-09-28T11:37:33.868Z,68.51
2022-09-28T11:40:23.049Z,67.92
2022-09-28T11:43:46.720Z,67.24
2022-09-28T11:46:27.863Z,67.28
2022-09-28T11:49:20.838Z,67.55
2022-09-28T11:51:53.419Z,67.90
2022-09-28T11:54:33.879Z,68.19
2022-09-28T11:57:07.157Z,68.54
2022-09-28T11:59:54.085Z,68.87
2022-09-28T12:02:27.898Z,69.46
2022-09-28T12:05:17.127Z,70.07
2022-09-28T12:07:59.274Z,70.48
2022-09-28T12:11:09.896Z,69.95
2022-09-28T12:14:01.433Z,70.38
2022-09-28T12:17:05.890Z,70.92
2022-09-28T12:19:45.371Z,71.81
2022-09-28T12:22:23.805Z,71.93
2022-09-28T12:24:57.423Z,72.21
2022-09-28T12:27:35.307Z,71.71
2022-09-28T12:30:16.717Z,71.03
2022-09-28T12:32:51.460Z,71.39
2022-09-28T12:35:48.976Z,71.20
2022-09-28T12:38:22.937Z,72.14
2022-09-28T12:41:31.462Z,72.79
2022-09-28T12:44:07.585Z,73.04
2022-09-28T12:46:59.091Z,72.67
2022-09-28T12:53:26.176Z,72.69
2022-09-28T12:56:03.455Z,72.87
2022-09-28T12:58:50.918Z,72.56
2022-09-28T13:01:43.576Z,72.40
2022-09-28T13:04:39.398Z,72.68
2022-09-28T13:07:34.062Z,73.47
2022-09-28T13:10:16.972Z,72.90
2022-09-28T13:13:44.926Z,72.74
2022-09-28T13:17:05.490Z,72.78
2022-09-28T13:19:52.247Z,72.79
2022-09-28T13:22:50.123Z,72.62
2022-09-28T13:25:22.416Z,72.26
2022-09-28T13:28:01.326Z,71.69
2022-09-28T13:30:36.791Z,70.96
2022-09-28T13:33:08.271Z,71.15
2022-09-28T13:35:43.357Z,70.56
2022-09-28T13:38:25.652Z,69.98
2022-09-28T13:41:06.668Z,69.95
2022-09-28T13:43:40.168Z,70.23
2022-09-28T13:46:24.532Z,70.60
2022-09-28T13:49:14.049Z,70.74
2022-09-28T13:52:02.944Z,70.67
2022-09-28T13:54:50.525Z,71.18
2022-09-28T13:57:27.506Z,71.69
2022-09-28T14:00:11.390Z,72.15
2022-09-28T14:03:21.252Z,72.42
2022-09-28T14:06:11.613Z,72.11
2022-09-28T14:09:06.514Z,71.89
2022-09-28T14:11:37.667Z,72.16
2022-09-28T14:14:24.824Z,71.93
2022-09-28T14:17:20.309Z,71.93
2022-09-28T14:20:05.415Z,72.64
2022-09-28T14:22:37.781Z,72.90
2022-09-28T14:25:27.860Z,73.05
2022-09-28T14:28:06.815Z,73.45
2022-09-28T14:30:37.926Z,73.73
2022-09-28T14:33:21.240Z,73.97
2022-09-28T14:35:57.061Z,74.30
2022-09-28T14:39:08.634Z,74.39
2022-09-28T14:41:44.109Z,74.59
2022-09-28T14:44:14.657Z,74.77
2022-09-28T14:46:45.664Z,74.79
2022-09-28T14:49:25.633Z,74.86
2022-09-28T14:51:56.545Z,75.01
2022-09-28T14:54:31.103Z,75.25
2022-09-28T14:57:23.806Z,75.29
2022-09-28T14:59:52.342Z,75.37
2022-09-28T15:02:26.552Z,74.73
2022-09-28T15:05:00.348Z,74.95
2022-09-28T15:07:42.391Z,75.02
2022-09-28T15:10:33.632Z,75.14
2022-09-28T15:13:21.487Z,75.05
2022-09-28T15:15:59.724Z,74.97
2022-09-28T15:18:55.117Z,74.75
2022-09-28T15:21:32.053Z,75.08
2022-09-28T15:24:00.055Z,75.49
2022-09-28T15:26:34.247Z,75.00
2022-09-28T15:29:03.540Z,74.49
2022-09-28T15:31:36.514Z,73.24
2022-09-28T15:34:22.889Z,72.06
2022-09-28T15:36:50.992Z,70.68
2022-09-28T15:39:23.772Z,69.68
2022-09-28T15:41:52.902Z,68.96
2022-09-28T15:44:29.654Z,68.35
2022-09-28T15:47:16.898Z,66.83
2022-09-28T15:49:58.773Z,64.40
2022-09-28T15:52:38.525Z,64.97
2022-09-28T15:55:31.669Z,64.87
2022-09-28T15:58:17.287Z,65.31
2022-09-28T16:00:50.830Z,65.53
2022-09-28T16:03:28.896Z,66.30
2022-09-28T16:06:11.057Z,66.84
2022-09-28T16:08:45.263Z,67.32
2022-09-28T16:11:29.226Z,68.05
2022-09-28T16:14:08.854Z,68.64
2022-09-28T16:16:46.620Z,69.25
2022-09-28T16:19:38.374Z,69.67
2022-09-28T16:22:14.301Z,70.28
2022-09-28T16:24:53.727Z,70.76
2022-09-28T16:27:25.063Z,70.89
2022-09-28T16:30:25.846Z,71.28
2022-09-28T16:32:57.137Z,71.47
2022-09-28T16:35:30.709Z,71.78
2022-09-28T16:38:01.753Z,72.17
2022-09-28T16:40:32.621Z,72.33
2022-09-28T16:43:04.518Z,72.47
2022-09-28T16:45:35.300Z,72.79
2022-09-28T16:48:04.781Z,73.11
2022-09-28T16:50:38.381Z,73.48
2022-09-28T16:53:37.307Z,73.96
2022-09-28T16:56:14.677Z,74.56
2022-09-28T16:58:44.224Z,74.74
2022-09-28T17:01:21.309Z,75.08
2022-09-28T17:03:53.828Z,75.23
2022-09-28T17:06:29.139Z,75.59
2022-09-28T17:09:06.974Z,75.61
2022-09-28T17:11:35.077Z,75.87
2022-09-28T17:14:07.117Z,75.94
2022-09-28T17:17:03.811Z,76.20
2022-09-28T17:19:31.608Z,76.55
2022-09-28T17:22:08.092Z,76.65
2022-09-28T17:24:41.802Z,76.72
2022-09-28T17:27:32.986Z,76.77
2022-09-28T17:30:13.658Z,76.84
2022-09-28T17:32:48.117Z,76.62
2022-09-28T17:35:26.346Z,76.73
2022-09-28T17:38:00.175Z,76.71
2022-09-28T17:40:29.697Z,76.73
2022-09-28T17:42:59.112Z,76.82
2022-09-28T17:45:28.876Z,77.00
2022-09-28T17:48:01.742Z,77.08
2022-09-28T17:50:36.385Z,77.14
2022-09-28T17:53:36.501Z,77.25
2022-09-28T17:56:08.040Z,77.27
2022-09-28T17:58:43.024Z,77.46
2022-09-28T18:01:12.510Z,77.60
2022-09-28T18:03:44.804Z,77.51
2022-09-28T18:06:19.994Z,77.53
2022-09-28T18:08:51.452Z,77.37
2022-09-28T18:11:19.883Z,77.62
2022-09-28T18:13:50.464Z,77.66
2022-09-28T18:16:23.447Z,77.83
2022-09-28T18:18:59.614Z,77.92
2022-09-28T18:21:37.921Z,78.13
2022-09-28T18:24:06.684Z,78.15
2022-09-28T18:26:37.685Z,78.28
2022-09-28T18:29:11.984Z,78.25
2022-09-28T18:31:52.126Z,78.07
2022-09-28T18:34:21.071Z,78.16
2022-09-28T18:37:04.822Z,78.35
2022-09-28T18:39:42.929Z,78.40
2022-09-28T18:42:20.821Z,78.45
2022-09-28T18:45:16.509Z,78.59
2022-09-28T18:47:55.288Z,78.80
2022-09-28T18:50:27.424Z,78.92
2022-09-28T18:53:11.899Z,79.08
2022-09-28T18:55:42.946Z,79.08
2022-09-28T18:58:21.265Z,79.19
2022-09-28T19:01:08.457Z,79.27
2022-09-28T19:03:47.146Z,79.43
2022-09-28T19:06:20.244Z,79.65
2022-09-28T19:08:53.502Z,79.70
2022-09-28T19:11:29.156Z,80.09
2022-09-28T19:13:58.449Z,80.11
2022-09-28T19:16:28.486Z,80.42
2022-09-28T19:19:03.291Z,80.51
2022-09-28T19:21:32.224Z,80.51
2022-09-28T19:24:07.571Z,80.54
2022-09-28T19:26:41.548Z,80.63
2022-09-28T19:29:13.071Z,80.75
2022-09-28T19:31:44.081Z,80.99
2022-09-28T19:34:15.764Z,81.00
2022-09-28T19:36:47.342Z,81.09
2022-09-28T19:39:19.846Z,81.27
2022-09-28T19:41:51.418Z,81.53
2022-09-28T19:44:27.957Z,81.56
2022-09-28T19:47:07.719Z,81.78
2022-09-28T19:49:43.209Z,81.86
2022-09-28T19:52:16.840Z,81.93
2022-09-28T19:55:20.203Z,82.00
2022-09-28T19:57:56.170Z,82.26
2022-09-28T20:00:27.293Z,82.01
2022-09-28T20:03:19.906Z,82.31
2022-09-28T20:05:49.620Z,82.12
2022-09-28T20:08:27.148Z,82.07
2022-09-28T20:11:06.051Z,81.88
2022-09-28T20:13:41.877Z,81.96
2022-09-28T20:16:24.602Z,81.94
2022-09-28T20:19:08.388Z,81.81
2022-09-28T20:21:49.112Z,81.76
2022-09-28T20:24:40.743Z,81.65
2022-09-28T20:27:24.263Z,82.05
2022-09-28T20:29:59.208Z,82.25
2022-09-28T20:32:49.657Z,82.12
2022-09-28T20:35:30.437Z,82.06
2022-09-28T20:38:13.986Z,82.49
2022-09-28T20:40:51.936Z,82.60
2022-09-28T20:43:23.656Z,82.78
2022-09-28T20:45:52.136Z,82.82
2022-09-28T20:48:20.461Z,82.85
2022-09-28T20:51:12.658Z,82.88
2022-09-28T20:53:52.255Z,82.76
2022-09-28T20:56:32.636Z,82.85
2022-09-28T20:59:04.039Z,82.74
2022-09-28T21:01:39.098Z,82.86
2022-09-28T21:04:17.675Z,82.76
2022-09-28T21:06:51.427Z,82.76
2022-09-28T21:09:19.659Z,82.67
2022-09-28T21:11:48.305Z,82.92
2022-09-28T21:14:18.883Z,82.62
2022-09-28T21:16:51.009Z,82.83
2022-09-28T21:19:20.935Z,82.56
2022-09-28T21:21:51.964Z,82.35
2022-09-28T21:24:29.605Z,82.20
2022-09-28T21:27:00.094Z,82.26
2022-09-28T21:29:49.291Z,82.21
2022-09-28T21:32:29.124Z,81.86
2022-09-28T21:35:09.364Z,81.93
2022-09-28T21:37:40.635Z,81.73
2022-09-28T21:40:11.670Z,81.86
2022-09-28T21:42:53.711Z,81.80
2022-09-28T21:45:40.706Z,81.91
2022-09-28T21:48:15.807Z,81.83
2022-09-28T21:51:01.022Z,81.66
2022-09-28T21:53:37.441Z,81.52
2022-09-28T21:56:16.883Z,81.61
2022-09-28T21:59:01.476Z,81.79
2022-09-28T22:02:20.162Z,81.95
2022-09-28T22:04:51.911Z,81.76
2022-09-28T22:07:47.242Z,81.71
2022-09-28T22:10:18.961Z,81.77
2022-09-28T22:12:51.423Z,81.67
2022-09-28T22:15:23.675Z,81.93
2022-09-28T22:18:07.778Z,81.65
2022-09-28T22:20:38.837Z,81.81
2022-09-28T22:23:28.371Z,81.82
2022-09-28T22:26:18.069Z,81.85
2022-09-28T22:29:10.159Z,82.08
2022-09-28T22:31:42.487Z,82.07
2022-09-28T22:34:34.291Z,82.16
2022-09-28T22:37:15.024Z,82.23
2022-09-28T22:39:48.371Z,82.53
2022-09-28T22:42:17.400Z,82.45
2022-09-28T22:44:55.244Z,82.30
2022-09-28T22:47:26.464Z,82.45
2022-09-28T22:49:58.077Z,82.34
2022-09-28T22:52:33.680Z,82.37
2022-09-28T22:55:30.525Z,82.64
2022-09-28T22:58:15.692Z,82.74
2022-09-28T23:01:11.400Z,82.59
2022-09-28T23:03:44.783Z,82.41
2022-09-28T23:06:24.729Z,82.51
2022-09-28T23:09:04.816Z,82.59
2022-09-28T23:11:49.829Z,82.48
2022-09-28T23:14:22.933Z,82.56
2022-09-28T23:16:58.735Z,82.37
2022-09-28T23:19:28.447Z,82.13
2022-09-28T23:22:00.032Z,82.07
2022-09-28T23:24:28.355Z,82.23
2022-09-28T23:27:17.576Z,82.24
2022-09-28T23:29:57.970Z,81.96
2022-09-28T23:32:59.456Z,82.18
2022-09-28T23:35:43.565Z,81.92
2022-09-28T23:38:27.047Z,81.79
2022-09-28T23:41:10.580Z,81.78
2022-09-28T23:43:48.375Z,81.65
2022-09-28T23:46:30.783Z,81.64
2022-09-28T23:49:07.971Z,81.58
2022-09-28T23:51:41.717Z,81.58
2022-09-28T23:54:13.283Z,81.70
2022-09-28T23:56:50.555Z,81.57
2022-09-28T23:59:36.729Z,81.42
